EGPH/EDI METAR and TAF weather

Enter ICAO airport designator
Station Type Date Time Source
EGPH METAR 2020/07/12 05:50 UTC NOAA

EGPH 120550Z 23008KT 9999 BKN040 11/09 Q1026


Station Type Date Time Source
EGPH Decoded METAR 2020/07/12 05:50 UTC NOAA

Edinburgh Airport, United Kingdom (EGPH) 55-57N 003-21W 0M
Jul 12, 2020 - 01:50 AM EDT / 2020.07.12 0550 UTC
Wind: from the SW (230 degrees) at 9 MPH (8 KT):0
Visibility: greater than 7 mile(s):0
Sky conditions: mostly cloudy
Temperature: 51 F (11 C)
Dew Point: 48 F (9 C)
Relative Humidity: 87%
Pressure (altimeter): 30.30 in. Hg (1026 hPa)
ob: EGPH 120550Z 23008KT 9999 BKN040 11/09 Q1026
cycle: 6

Station Type Date Time Source
EGPH TAF 2020/07/12 06:09 UTC NOAA

TAF EGPH 120456Z 1206/1306 24006KT 9999 FEW035 PROB40
TEMPO 1220/1224 6000 RA BKN014
TEMPO 1300/1306 6000 RA BKN008 PROB30
TEMPO 1300/1306 4000 RADZ BR

Example: see airport list